createdAt,value
2022-11-12T00:00:17.563Z,11.00
2022-11-12T00:02:40.214Z,10.90
2022-11-12T00:05:02.692Z,10.90
2022-11-12T00:07:25.321Z,10.80
2022-11-12T00:09:47.790Z,10.70
2022-11-12T00:12:10.329Z,10.80
2022-11-12T00:14:33.125Z,10.70
2022-11-12T00:16:56.919Z,10.70
2022-11-12T00:19:19.430Z,10.70
2022-11-12T00:21:42.153Z,10.70
2022-11-12T00:24:04.940Z,10.60
2022-11-12T00:26:27.565Z,10.60
2022-11-12T00:28:50.640Z,10.70
2022-11-12T00:31:13.806Z,10.60
2022-11-12T00:33:41.710Z,10.70
2022-11-12T00:36:04.883Z,10.70
2022-11-12T00:38:27.935Z,10.70
2022-11-12T00:40:51.181Z,10.70
2022-11-12T00:43:13.810Z,10.70
2022-11-12T00:45:36.500Z,10.70
2022-11-12T00:47:59.194Z,10.70
2022-11-12T00:50:22.927Z,10.70
2022-11-12T00:52:45.875Z,10.70
2022-11-12T00:55:09.062Z,10.60
2022-11-12T00:57:31.580Z,10.60
2022-11-12T00:59:54.141Z,10.60
2022-11-12T01:02:17.143Z,10.60
2022-11-12T01:04:39.977Z,10.60
2022-11-12T01:07:04.376Z,10.60
2022-11-12T01:09:27.597Z,10.60
2022-11-12T01:11:50.434Z,10.60
2022-11-12T01:14:13.033Z,10.50
2022-11-12T01:16:38.567Z,10.50
2022-11-12T01:19:02.079Z,10.50
2022-11-12T01:21:25.965Z,10.40
2022-11-12T01:23:49.802Z,10.40
2022-11-12T01:26:14.764Z,10.40
2022-11-12T01:28:38.044Z,10.40
2022-11-12T01:31:12.702Z,10.50
2022-11-12T01:33:35.676Z,10.50
2022-11-12T01:36:00.289Z,10.50
2022-11-12T01:38:23.338Z,10.50
2022-11-12T01:40:47.306Z,10.40
2022-11-12T01:43:14.603Z,10.40
2022-11-12T01:45:39.607Z,10.40
2022-11-12T01:48:03.411Z,10.40
2022-11-12T01:50:29.152Z,10.30
2022-11-12T01:52:56.712Z,10.40
2022-11-12T01:55:23.407Z,10.30
2022-11-12T01:57:54.202Z,10.40
2022-11-12T02:00:17.703Z,10.40
2022-11-12T02:02:41.324Z,10.30
2022-11-12T02:05:05.765Z,10.30
2022-11-12T02:07:29.311Z,10.20
2022-11-12T02:09:53.491Z,10.20
2022-11-12T02:12:37.175Z,10.10
2022-11-12T02:15:20.279Z,10.10
2022-11-12T02:17:42.980Z,10.00
2022-11-12T02:20:06.085Z,10.00
2022-11-12T02:22:31.150Z,10.00
2022-11-12T02:24:53.907Z,9.80
2022-11-12T02:27:16.761Z,9.80
2022-11-12T02:29:46.459Z,9.80
2022-11-12T02:32:09.994Z,9.90
2022-11-12T02:34:32.493Z,9.90
2022-11-12T02:36:55.448Z,9.80
2022-11-12T02:39:19.960Z,9.90
2022-11-12T02:41:42.442Z,9.90
2022-11-12T02:44:05.213Z,9.90
2022-11-12T02:46:27.938Z,9.90
2022-11-12T02:48:50.358Z,9.90
2022-11-12T02:51:12.946Z,9.80
2022-11-12T02:53:35.913Z,9.80
2022-11-12T02:56:00.135Z,9.80
2022-11-12T02:58:23.722Z,9.80
2022-11-12T03:00:46.372Z,9.80
2022-11-12T03:03:09.363Z,9.80
2022-11-12T03:05:35.463Z,9.80
2022-11-12T03:07:59.465Z,9.80
2022-11-12T03:10:22.250Z,9.80
2022-11-12T03:12:46.319Z,9.80
2022-11-12T03:15:10.295Z,9.70
2022-11-12T03:17:35.180Z,9.70
2022-11-12T03:19:57.874Z,9.70
2022-11-12T03:22:20.537Z,9.70
2022-11-12T03:24:42.876Z,9.60
2022-11-12T03:27:07.165Z,9.60
2022-11-12T03:29:31.145Z,9.50
2022-11-12T03:31:53.816Z,9.40
2022-11-12T03:34:16.554Z,9.40
2022-11-12T03:36:39.656Z,9.40
2022-11-12T03:39:02.303Z,9.40
2022-11-12T03:41:25.344Z,9.40
2022-11-12T03:43:48.120Z,9.40
2022-11-12T03:46:12.130Z,9.40
2022-11-12T03:48:34.903Z,9.30
2022-11-12T03:50:59.354Z,9.20
2022-11-12T03:53:21.793Z,9.10
2022-11-12T03:55:44.267Z,9.10
2022-11-12T03:58:07.181Z,9.10
2022-11-12T04:00:30.577Z,9.00
2022-11-12T04:02:54.474Z,9.00
2022-11-12T04:05:34.649Z,9.00
2022-11-12T04:08:18.711Z,9.00
2022-11-12T04:10:41.459Z,8.90
2022-11-12T04:13:21.900Z,8.80
2022-11-12T04:15:44.837Z,8.80
2022-11-12T04:18:26.220Z,8.80
2022-11-12T04:21:07.892Z,8.80
2022-11-12T04:23:31.011Z,8.70
2022-11-12T04:26:11.212Z,8.70
2022-11-12T04:28:33.543Z,8.70
2022-11-12T04:30:55.283Z,8.70
2022-11-12T04:33:19.694Z,8.70
2022-11-12T04:35:42.177Z,8.70
2022-11-12T04:38:04.546Z,8.80
2022-11-12T04:40:45.695Z,8.70
2022-11-12T04:43:28.739Z,8.60
2022-11-12T04:45:54.221Z,8.60
2022-11-12T04:48:17.042Z,8.70
2022-11-12T04:50:41.727Z,8.70
2022-11-12T04:53:04.589Z,8.60
2022-11-12T04:55:27.388Z,8.50
2022-11-12T04:57:50.026Z,8.40
2022-11-12T05:00:13.860Z,8.30
2022-11-12T05:02:36.222Z,8.30
2022-11-12T05:04:58.728Z,8.30
2022-11-12T05:07:22.873Z,8.20
2022-11-12T05:09:46.020Z,8.20
2022-11-12T05:12:09.149Z,8.10
2022-11-12T05:14:32.380Z,8.10
2022-11-12T05:16:55.275Z,8.10
2022-11-12T05:19:18.758Z,8.10
2022-11-12T05:21:59.311Z,8.20
2022-11-12T05:24:41.183Z,8.30
2022-11-12T05:27:04.875Z,8.80
2022-11-12T05:29:27.784Z,9.30
2022-11-12T05:31:50.389Z,9.80
2022-11-12T05:34:13.159Z,10.30
2022-11-12T05:36:36.300Z,10.80
2022-11-12T05:38:59.260Z,11.20
2022-11-12T05:41:22.877Z,11.50
2022-11-12T05:43:45.547Z,11.90
2022-11-12T05:46:11.503Z,12.10
2022-11-12T05:48:34.437Z,12.30
2022-11-12T05:51:13.572Z,12.60
2022-11-12T05:53:36.843Z,12.80
2022-11-12T05:56:03.040Z,13.10
2022-11-12T05:58:27.632Z,13.50
2022-11-12T06:00:59.267Z,13.70
2022-11-12T06:03:21.970Z,14.00
2022-11-12T06:05:44.503Z,14.10
2022-11-12T06:08:08.520Z,14.30
2022-11-12T06:10:31.600Z,14.60
2022-11-12T06:13:02.094Z,14.70
2022-11-12T06:15:27.364Z,14.90
2022-11-12T06:17:49.963Z,15.00
2022-11-12T06:20:13.541Z,15.10
2022-11-12T06:22:35.908Z,14.90
2022-11-12T06:25:01.805Z,14.90
2022-11-12T06:27:24.756Z,15.10
2022-11-12T06:29:47.078Z,15.00
2022-11-12T06:32:11.220Z,15.20
2022-11-12T06:34:34.053Z,15.20
2022-11-12T06:36:56.818Z,14.30
2022-11-12T06:39:19.236Z,14.30
2022-11-12T06:41:42.024Z,13.90
2022-11-12T06:44:05.854Z,13.60
2022-11-12T06:46:28.491Z,13.80
2022-11-12T06:48:52.280Z,13.90
2022-11-12T06:51:18.955Z,13.80
2022-11-12T06:53:41.373Z,13.90
2022-11-12T06:56:04.884Z,14.00
2022-11-12T06:58:27.776Z,13.90
2022-11-12T07:00:50.660Z,13.70
2022-11-12T07:03:16.488Z,13.60
2022-11-12T07:05:43.365Z,13.80
2022-11-12T07:08:06.229Z,13.80
2022-11-12T07:10:28.803Z,13.60
2022-11-12T07:12:53.535Z,13.70
2022-11-12T07:15:16.396Z,13.70
2022-11-12T07:17:39.006Z,13.60
2022-11-12T07:20:03.978Z,13.70
2022-11-12T07:22:28.453Z,13.40
2022-11-12T07:24:51.233Z,13.60
2022-11-12T07:27:13.826Z,13.70
2022-11-12T07:29:47.643Z,13.60
2022-11-12T07:32:10.969Z,13.60
2022-11-12T07:34:33.462Z,13.50
2022-11-12T07:36:56.371Z,13.50
2022-11-12T07:39:20.544Z,13.50
2022-11-12T07:41:42.921Z,13.50
2022-11-12T07:44:05.383Z,13.70
2022-11-12T07:46:29.421Z,13.70
2022-11-12T07:48:52.124Z,13.80
2022-11-12T07:51:15.820Z,13.50
2022-11-12T07:53:38.291Z,13.60
2022-11-12T07:56:04.775Z,13.50
2022-11-12T07:58:28.721Z,13.60
2022-11-12T08:00:52.001Z,13.70
2022-11-12T08:03:14.768Z,13.60
2022-11-12T08:05:37.449Z,13.40
2022-11-12T08:07:59.772Z,13.20
2022-11-12T08:10:22.611Z,13.20
2022-11-12T08:12:46.760Z,13.00
2022-11-12T08:15:09.569Z,12.90
2022-11-12T08:17:32.161Z,12.90
2022-11-12T08:19:55.480Z,13.10
2022-11-12T08:22:18.114Z,13.40
2022-11-12T08:24:40.767Z,13.20
2022-11-12T08:27:03.752Z,13.50
2022-11-12T08:29:28.036Z,13.40
2022-11-12T08:31:50.947Z,13.60
2022-11-12T08:34:16.219Z,13.70
2022-11-12T08:36:42.984Z,13.80
2022-11-12T08:39:08.201Z,14.00
2022-11-12T08:41:30.960Z,13.80
2022-11-12T08:43:53.353Z,13.80
2022-11-12T08:46:17.629Z,13.80
2022-11-12T08:48:41.329Z,13.70
2022-11-12T08:51:05.535Z,13.90
2022-11-12T08:53:28.783Z,13.90
2022-11-12T08:55:54.948Z,14.00
2022-11-12T08:58:17.981Z,13.90
2022-11-12T09:00:43.314Z,14.10
2022-11-12T09:03:08.721Z,14.20
2022-11-12T09:05:32.079Z,14.50
2022-11-12T09:07:59.217Z,14.40
2022-11-12T09:10:22.426Z,14.60
2022-11-12T09:12:45.154Z,14.50
2022-11-12T09:15:36.373Z,14.70
2022-11-12T09:17:56.726Z,14.60
2022-11-12T09:20:21.149Z,14.50
2022-11-12T09:22:43.548Z,14.80
2022-11-12T09:25:06.753Z,14.70
2022-11-12T09:27:29.488Z,14.60
2022-11-12T09:29:52.130Z,14.70
2022-11-12T09:32:14.970Z,14.30
2022-11-12T09:34:37.656Z,14.50
2022-11-12T09:37:01.307Z,14.80
2022-11-12T09:39:23.874Z,14.80
2022-11-12T09:41:46.229Z,14.70
2022-11-12T09:44:12.558Z,15.00
2022-11-12T09:46:44.700Z,15.00
2022-11-12T09:49:14.136Z,15.10
2022-11-12T09:51:40.892Z,14.90
2022-11-12T09:54:14.969Z,15.20
2022-11-12T09:56:37.607Z,15.30
2022-11-12T09:59:00.777Z,15.30
2022-11-12T10:01:32.889Z,15.20
2022-11-12T10:04:01.534Z,15.50
2022-11-12T10:06:28.935Z,15.60
2022-11-12T10:08:55.559Z,15.90
2022-11-12T10:11:57.684Z,15.90
2022-11-12T10:14:35.970Z,15.70
2022-11-12T10:17:09.041Z,15.60
2022-11-12T10:19:50.906Z,15.70
2022-11-12T10:22:27.505Z,15.90
2022-11-12T10:24:50.807Z,15.80
2022-11-12T10:27:19.455Z,15.80
2022-11-12T10:29:49.269Z,15.80
2022-11-12T10:32:16.368Z,15.90
2022-11-12T10:34:40.380Z,15.80
2022-11-12T10:37:06.988Z,15.90
2022-11-12T10:39:35.259Z,16.00
2022-11-12T10:42:05.512Z,15.70
2022-11-12T10:44:32.321Z,15.60
2022-11-12T10:47:33.015Z,15.50
2022-11-12T10:50:11.978Z,15.20
2022-11-12T10:52:34.791Z,15.30
2022-11-12T10:55:07.009Z,15.40
2022-11-12T10:57:30.292Z,15.40
2022-11-12T11:00:08.941Z,15.50
2022-11-12T11:02:31.543Z,15.60
2022-11-12T11:04:54.505Z,15.60
2022-11-12T11:07:22.843Z,15.40
2022-11-12T11:24:13.112Z,15.40
2022-11-12T11:27:46.702Z,15.40
2022-11-12T11:30:36.350Z,15.00
2022-11-12T11:33:43.566Z,15.10
2022-11-12T11:36:27.800Z,15.30
2022-11-12T11:39:46.426Z,15.40
2022-11-12T11:42:51.819Z,15.20
2022-11-12T11:45:30.446Z,15.40
2022-11-12T11:48:45.165Z,15.80
2022-11-12T11:52:21.782Z,15.80
2022-11-12T11:55:38.200Z,15.60
2022-11-12T11:59:02.458Z,15.50
2022-11-12T12:02:20.873Z,15.50
2022-11-12T12:05:29.315Z,15.80
2022-11-12T12:12:51.143Z,15.50
2022-11-12T12:16:48.053Z,15.60
2022-11-12T12:20:33.030Z,16.10
2022-11-12T12:24:16.688Z,16.00
2022-11-12T12:28:16.481Z,15.60
2022-11-12T12:34:41.066Z,15.70
2022-11-12T12:42:43.858Z,15.10
2022-11-12T12:51:27.730Z,15.50
2022-11-12T12:59:04.508Z,15.60
2022-11-12T13:11:15.569Z,15.60
2022-11-12T13:15:35.347Z,15.50
2022-11-12T13:19:27.810Z,15.20
2022-11-12T13:23:19.122Z,15.20
2022-11-12T13:27:12.896Z,15.20
2022-11-12T13:35:13.195Z,15.00
2022-11-12T13:47:45.510Z,15.20
2022-11-12T14:03:19.983Z,15.30
2022-11-12T14:05:49.528Z,15.20
2022-11-12T14:08:29.792Z,15.20
2022-11-12T14:11:09.477Z,15.20
2022-11-12T14:13:50.438Z,15.20
2022-11-12T14:16:42.450Z,15.10
2022-11-12T14:19:35.391Z,15.00
2022-11-12T14:22:24.880Z,14.90
2022-11-12T14:25:00.266Z,14.90
2022-11-12T14:27:25.996Z,14.90
2022-11-12T14:29:49.817Z,14.90
2022-11-12T14:32:16.557Z,14.90
2022-11-12T14:34:39.808Z,14.80
2022-11-12T14:37:03.208Z,14.80
2022-11-12T14:39:28.718Z,14.80
2022-11-12T14:41:52.045Z,14.60
2022-11-12T14:44:20.815Z,14.60
2022-11-12T14:46:48.260Z,14.50
2022-11-12T14:49:47.078Z,14.40
2022-11-12T14:52:17.302Z,14.30
2022-11-12T14:54:42.375Z,14.20
2022-11-12T14:57:06.980Z,14.20
2022-11-12T14:59:37.495Z,14.20
2022-11-12T15:05:29.823Z,14.10
2022-11-12T15:07:57.307Z,13.90
2022-11-12T15:10:34.953Z,13.80
2022-11-12T15:13:07.135Z,13.70
2022-11-12T15:15:30.913Z,13.60
2022-11-12T15:18:00.775Z,13.40
2022-11-12T15:20:23.984Z,13.30
2022-11-12T15:22:51.919Z,13.30
2022-11-12T15:25:23.623Z,13.10
2022-11-12T15:27:49.479Z,13.00
2022-11-12T15:30:18.179Z,13.00
2022-11-12T15:32:41.552Z,12.90
2022-11-12T15:35:05.618Z,13.10
2022-11-12T15:37:32.093Z,13.20
2022-11-12T15:39:59.467Z,13.30
2022-11-12T15:42:29.276Z,13.50
2022-11-12T15:44:57.925Z,13.60
2022-11-12T15:47:23.244Z,13.70
2022-11-12T15:49:53.288Z,13.80
2022-11-12T15:52:46.845Z,13.70
2022-11-12T15:55:17.866Z,13.50
2022-11-12T15:57:45.405Z,13.30
2022-11-12T16:00:15.765Z,13.10
2022-11-12T16:02:38.681Z,12.90
2022-11-12T16:05:04.479Z,12.60
2022-11-12T16:07:33.143Z,12.40
2022-11-12T16:09:57.055Z,12.40
2022-11-12T16:12:23.067Z,12.60
2022-11-12T16:14:48.254Z,12.60
2022-11-12T16:17:15.169Z,12.60
2022-11-12T16:19:42.010Z,12.60
2022-11-12T16:22:12.563Z,12.70
2022-11-12T16:24:35.865Z,12.70
2022-11-12T16:27:01.584Z,12.70
2022-11-12T16:29:24.620Z,12.70
2022-11-12T16:31:49.260Z,12.60
2022-11-12T16:34:13.204Z,12.60
2022-11-12T16:36:36.156Z,12.40
2022-11-12T16:38:59.119Z,12.10
2022-11-12T16:41:21.998Z,11.90
2022-11-12T16:43:44.876Z,11.90
2022-11-12T16:46:15.965Z,12.00
2022-11-12T16:48:40.800Z,12.00
2022-11-12T16:51:03.607Z,12.00
2022-11-12T16:53:26.773Z,12.00
2022-11-12T16:55:50.017Z,12.00
2022-11-12T16:58:15.326Z,12.10
2022-11-12T17:00:39.088Z,12.20
2022-11-12T17:03:02.201Z,12.10
2022-11-12T17:05:27.262Z,12.00
2022-11-12T17:07:51.195Z,11.90
2022-11-12T17:10:14.406Z,11.90
2022-11-12T17:12:40.992Z,11.90
2022-11-12T17:15:03.828Z,11.90
2022-11-12T17:17:26.580Z,11.80
2022-11-12T17:19:49.528Z,11.60
2022-11-12T17:22:14.073Z,11.30
2022-11-12T17:24:36.646Z,11.20
2022-11-12T17:27:00.424Z,11.40
2022-11-12T17:29:23.531Z,11.40
2022-11-12T17:31:49.405Z,11.50
2022-11-12T17:34:12.644Z,11.50
2022-11-12T17:36:39.297Z,11.50
2022-11-12T17:39:06.824Z,11.60
2022-11-12T17:41:30.057Z,11.60
2022-11-12T17:43:56.376Z,11.60
2022-11-12T17:46:19.013Z,11.50
2022-11-12T17:48:42.598Z,11.50
2022-11-12T17:51:08.222Z,11.30
2022-11-12T17:53:32.026Z,11.30
2022-11-12T17:55:59.543Z,11.20
2022-11-12T17:58:23.393Z,11.00
2022-11-12T18:00:46.113Z,10.80
2022-11-12T18:03:12.104Z,10.70
2022-11-12T18:05:35.180Z,10.60
2022-11-12T18:08:07.523Z,10.60
2022-11-12T18:10:36.533Z,10.50
2022-11-12T18:13:03.425Z,10.40
2022-11-12T18:15:27.401Z,10.40
2022-11-12T18:17:50.918Z,10.50
2022-11-12T18:20:15.852Z,10.50
2022-11-12T18:22:44.730Z,10.40
2022-11-12T18:25:09.223Z,10.30
2022-11-12T18:27:34.652Z,10.20
2022-11-12T18:30:02.104Z,10.20
2022-11-12T18:32:25.324Z,10.20
2022-11-12T18:34:48.780Z,10.10
2022-11-12T18:37:11.292Z,10.00
2022-11-12T18:39:34.794Z,9.90
2022-11-12T18:42:03.677Z,9.80
2022-11-12T18:44:26.371Z,9.80
2022-11-12T18:46:51.241Z,9.80
2022-11-12T18:49:14.401Z,9.70
2022-11-12T18:51:37.926Z,9.70
2022-11-12T18:54:01.375Z,9.60
2022-11-12T18:56:24.393Z,9.60
2022-11-12T18:58:47.967Z,9.60
2022-11-12T19:01:15.994Z,9.60
2022-11-12T19:03:41.836Z,9.50
2022-11-12T19:06:07.616Z,9.40
2022-11-12T19:08:30.818Z,9.30
2022-11-12T19:10:58.861Z,9.30
2022-11-12T19:13:22.029Z,9.30
2022-11-12T19:15:48.611Z,9.30
2022-11-12T19:18:11.743Z,9.30
2022-11-12T19:20:35.903Z,9.30
2022-11-12T19:22:59.499Z,9.40
2022-11-12T19:25:22.205Z,9.40
2022-11-12T19:27:45.387Z,9.40
2022-11-12T19:30:09.363Z,9.30
2022-11-12T19:32:31.940Z,9.20
2022-11-12T19:34:54.691Z,9.10
2022-11-12T19:37:33.014Z,9.10
2022-11-12T19:39:56.568Z,9.10
2022-11-12T19:42:19.182Z,9.10
2022-11-12T19:44:42.234Z,9.10
2022-11-12T19:47:06.820Z,9.10
2022-11-12T19:49:29.876Z,9.00
2022-11-12T19:51:52.490Z,9.00
2022-11-12T19:54:16.492Z,8.90
2022-11-12T19:56:38.883Z,8.90
2022-11-12T19:59:01.943Z,8.90
2022-11-12T20:01:24.536Z,8.90
2022-11-12T20:03:47.131Z,8.80
2022-11-12T20:06:11.747Z,8.80
2022-11-12T20:08:35.363Z,8.80
2022-11-12T20:10:59.746Z,8.80
2022-11-12T20:13:24.763Z,8.70
2022-11-12T20:15:47.455Z,8.70
2022-11-12T20:18:10.281Z,8.70
2022-11-12T20:20:32.924Z,8.70
2022-11-12T20:22:55.645Z,8.70
2022-11-12T20:25:18.143Z,8.70
2022-11-12T20:27:42.590Z,8.70
2022-11-12T20:30:06.266Z,8.70
2022-11-12T20:32:29.313Z,8.60
2022-11-12T20:34:52.120Z,8.70
2022-11-12T20:37:14.775Z,8.70
2022-11-12T20:39:37.678Z,8.60
2022-11-12T20:42:01.235Z,8.60
2022-11-12T20:44:25.564Z,8.60
2022-11-12T20:46:48.298Z,8.60
2022-11-12T20:49:10.946Z,8.60
2022-11-12T20:51:35.140Z,8.50
2022-11-12T20:54:00.704Z,8.40
2022-11-12T20:56:25.107Z,8.50
2022-11-12T20:58:47.777Z,8.60
2022-11-12T21:01:14.722Z,8.50
2022-11-12T21:03:39.692Z,8.40
2022-11-12T21:06:03.449Z,8.40
2022-11-12T21:08:26.328Z,8.30
2022-11-12T21:10:50.311Z,8.20
2022-11-12T21:13:12.844Z,8.20
2022-11-12T21:15:35.975Z,8.20
2022-11-12T21:18:00.043Z,8.20
2022-11-12T21:20:22.940Z,8.20
2022-11-12T21:22:45.752Z,8.20
2022-11-12T21:25:09.329Z,8.10
2022-11-12T21:27:31.807Z,8.10
2022-11-12T21:29:54.301Z,8.10
2022-11-12T21:32:16.894Z,8.00
2022-11-12T21:34:41.256Z,8.10
2022-11-12T21:37:03.874Z,8.20
2022-11-12T21:39:26.804Z,8.10
2022-11-12T21:41:49.430Z,8.00
2022-11-12T21:44:11.866Z,7.90
2022-11-12T21:46:35.969Z,7.90
2022-11-12T21:48:59.486Z,7.80
2022-11-12T21:51:24.996Z,7.70
2022-11-12T21:53:49.447Z,7.70
2022-11-12T21:56:13.830Z,7.70
2022-11-12T21:58:36.772Z,7.70
2022-11-12T22:01:08.277Z,7.60
2022-11-12T22:03:31.862Z,7.50
2022-11-12T22:05:54.489Z,7.50
2022-11-12T22:08:18.855Z,7.50
2022-11-12T22:10:41.142Z,7.50
2022-11-12T22:13:25.909Z,7.50
2022-11-12T22:15:46.990Z,7.50
2022-11-12T22:18:09.864Z,7.40
2022-11-12T22:20:32.711Z,7.40
2022-11-12T22:22:55.206Z,7.40
2022-11-12T22:25:19.125Z,7.40
2022-11-12T22:27:41.851Z,7.40
2022-11-12T22:30:05.231Z,7.40
2022-11-12T22:32:28.287Z,7.30
2022-11-12T22:34:51.313Z,7.30
2022-11-12T22:37:13.684Z,7.30
2022-11-12T22:39:36.230Z,7.30
2022-11-12T22:42:00.423Z,7.30
2022-11-12T22:44:23.491Z,7.20
2022-11-12T22:46:46.358Z,7.20
2022-11-12T22:49:08.888Z,7.20
2022-11-12T22:51:33.492Z,7.10
2022-11-12T22:53:57.779Z,7.10
2022-11-12T22:56:20.479Z,7.10
2022-11-12T22:58:46.523Z,7.10
2022-11-12T23:01:12.579Z,7.20
2022-11-12T23:03:36.390Z,7.10
2022-11-12T23:05:59.851Z,7.00
2022-11-12T23:08:22.540Z,7.00
2022-11-12T23:10:46.069Z,7.00
2022-11-12T23:13:08.934Z,7.00
2022-11-12T23:15:33.101Z,7.10
2022-11-12T23:17:55.508Z,7.10
2022-11-12T23:20:18.478Z,7.10
2022-11-12T23:22:41.049Z,7.20
2022-11-12T23:25:03.903Z,7.20
2022-11-12T23:27:27.109Z,7.20
2022-11-12T23:29:49.405Z,7.30
2022-11-12T23:32:13.646Z,7.30
2022-11-12T23:34:36.128Z,7.20
2022-11-12T23:36:59.096Z,7.20
2022-11-12T23:39:21.881Z,7.30
2022-11-12T23:41:44.941Z,7.30
2022-11-12T23:44:08.044Z,7.30
2022-11-12T23:46:30.492Z,7.20
2022-11-12T23:48:54.597Z,7.30
2022-11-12T23:51:19.507Z,7.30
2022-11-12T23:53:42.985Z,7.30
2022-11-12T23:56:07.395Z,7.20
2022-11-12T23:58:30.413Z,7.20
